createdAt,value
2018-09-25T00:01:22.243Z,83.20
2018-09-25T00:03:55.739Z,83.70
2018-09-25T00:06:29.422Z,83.00
2018-09-25T00:09:02.923Z,83.50
2018-09-25T00:11:36.603Z,83.40
2018-09-25T00:14:10.260Z,83.30
2018-09-25T00:16:44.187Z,84.10
2018-09-25T00:19:17.762Z,83.40
2018-09-25T00:21:51.476Z,83.40
2018-09-25T00:24:24.878Z,83.80
2018-09-25T00:26:58.451Z,83.90
2018-09-25T00:29:32.055Z,83.60
2018-09-25T00:32:05.707Z,83.10
2018-09-25T00:34:39.231Z,83.60
2018-09-25T00:37:12.895Z,83.40
2018-09-25T00:39:46.333Z,83.00
2018-09-25T00:42:20.067Z,83.30
2018-09-25T00:44:53.721Z,83.10
2018-09-25T00:47:27.423Z,83.60
2018-09-25T00:50:00.944Z,83.50
2018-09-25T00:52:34.667Z,83.20
2018-09-25T00:55:08.300Z,83.30
2018-09-25T00:57:41.883Z,83.00
2018-09-25T01:00:15.488Z,83.10
2018-09-25T01:02:48.878Z,83.60
2018-09-25T01:05:22.812Z,83.60
2018-09-25T01:07:56.223Z,83.60
2018-09-25T01:10:29.753Z,83.70
2018-09-25T01:13:03.394Z,83.80
2018-09-25T01:15:37.054Z,83.80
2018-09-25T01:18:10.711Z,83.60
2018-09-25T01:20:44.382Z,83.90
2018-09-25T01:23:18.083Z,83.60
2018-09-25T01:25:51.668Z,84.10
2018-09-25T01:28:25.239Z,83.60
2018-09-25T01:30:58.861Z,83.60
2018-09-25T01:33:32.580Z,83.60
2018-09-25T01:36:06.431Z,83.50
2018-09-25T01:38:40.505Z,83.90
2018-09-25T01:41:13.896Z,84.00
2018-09-25T01:43:47.554Z,84.00
2018-09-25T01:46:21.100Z,83.90
2018-09-25T01:48:54.496Z,83.50
2018-09-25T01:51:27.947Z,83.70
2018-09-25T01:54:01.455Z,83.90
2018-09-25T01:56:35.164Z,84.10
2018-09-25T01:59:08.852Z,83.70
2018-09-25T02:01:42.440Z,83.90
2018-09-25T02:04:16.106Z,84.50
2018-09-25T02:06:49.770Z,84.60
2018-09-25T02:09:23.362Z,84.10
2018-09-25T02:11:57.203Z,84.00
2018-09-25T02:14:31.003Z,84.40
2018-09-25T02:17:04.688Z,84.70
2018-09-25T02:19:38.370Z,84.70
2018-09-25T02:22:11.999Z,84.70
2018-09-25T02:24:46.007Z,84.50
2018-09-25T02:27:19.698Z,84.40
2018-09-25T02:29:53.299Z,84.80
2018-09-25T02:32:26.827Z,84.30
2018-09-25T02:35:00.274Z,84.30
2018-09-25T02:37:33.987Z,84.50
2018-09-25T02:40:07.534Z,84.70
2018-09-25T02:42:41.108Z,85.20
2018-09-25T02:45:14.602Z,85.10
2018-09-25T02:47:48.255Z,85.10
2018-09-25T02:50:21.800Z,85.10
2018-09-25T02:52:55.383Z,85.00
2018-09-25T02:55:29.051Z,85.20
2018-09-25T02:58:02.488Z,85.20
2018-09-25T03:00:36.111Z,85.00
2018-09-25T03:03:09.575Z,85.20
2018-09-25T03:05:43.340Z,85.00
2018-09-25T03:08:17.007Z,85.40
2018-09-25T03:10:50.694Z,85.50
2018-09-25T03:13:24.507Z,85.30
2018-09-25T03:15:58.084Z,85.30
2018-09-25T03:18:31.791Z,85.20
2018-09-25T03:21:05.386Z,85.30
2018-09-25T03:23:39.045Z,85.60
2018-09-25T03:26:12.747Z,85.40
2018-09-25T03:28:46.418Z,85.60
2018-09-25T03:31:20.008Z,85.20
2018-09-25T03:33:53.590Z,85.30
2018-09-25T03:36:27.339Z,85.50
2018-09-25T03:39:01.021Z,85.70
2018-09-25T03:41:34.691Z,85.50
2018-09-25T03:44:08.224Z,85.50
2018-09-25T03:46:41.927Z,85.70
2018-09-25T03:49:15.632Z,85.50
2018-09-25T03:51:49.208Z,85.50
2018-09-25T03:54:22.797Z,85.20
2018-09-25T03:56:56.459Z,85.60
2018-09-25T03:59:30.073Z,85.60
2018-09-25T04:02:03.767Z,85.60
2018-09-25T04:04:37.327Z,85.70
2018-09-25T04:07:10.971Z,85.60
2018-09-25T04:09:44.663Z,85.80
2018-09-25T04:12:18.307Z,85.80
2018-09-25T04:14:51.807Z,85.50
2018-09-25T04:17:25.496Z,85.70
2018-09-25T04:19:58.995Z,86.00
2018-09-25T04:22:32.748Z,86.40
2018-09-25T04:25:06.279Z,85.50
2018-09-25T04:27:39.974Z,85.50
2018-09-25T04:30:13.639Z,85.70
2018-09-25T04:32:47.206Z,86.20
2018-09-25T04:35:20.695Z,86.20
2018-09-25T04:37:54.353Z,86.10
2018-09-25T04:40:28.157Z,86.30
2018-09-25T04:43:01.783Z,86.50
2018-09-25T04:45:35.407Z,86.80
2018-09-25T04:48:09.054Z,86.80
2018-09-25T04:50:42.811Z,87.00
2018-09-25T04:53:16.383Z,86.80
2018-09-25T04:55:49.942Z,86.70
2018-09-25T04:58:23.643Z,86.80
2018-09-25T05:00:57.322Z,86.70
2018-09-25T05:03:30.932Z,86.70
2018-09-25T05:06:04.679Z,86.60
2018-09-25T05:08:38.452Z,86.80
2018-09-25T05:11:12.138Z,86.40
2018-09-25T05:13:45.834Z,86.60
2018-09-25T05:16:19.347Z,86.70
2018-09-25T05:18:53.066Z,86.70
2018-09-25T05:24:09.884Z,86.90
2018-09-25T05:26:43.678Z,87.00
2018-09-25T05:29:17.316Z,86.60
2018-09-25T05:31:51.004Z,86.10
2018-09-25T05:34:24.660Z,86.00
2018-09-25T05:36:58.125Z,86.00
2018-09-25T05:39:32.154Z,86.10
2018-09-25T05:42:05.687Z,86.20
2018-09-25T05:44:39.315Z,86.70
2018-09-25T05:47:12.838Z,86.10
2018-09-25T05:49:46.556Z,86.20
2018-09-25T05:52:20.311Z,86.30
2018-09-25T05:54:53.847Z,86.30
2018-09-25T05:57:27.375Z,85.90
2018-09-25T06:00:00.939Z,85.90
2018-09-25T06:02:34.446Z,85.50
2018-09-25T06:05:08.211Z,85.30
2018-09-25T06:07:41.923Z,85.60
2018-09-25T06:10:15.519Z,85.70
2018-09-25T06:12:49.255Z,86.50
2018-09-25T06:15:22.712Z,86.30
2018-09-25T06:17:56.267Z,85.80
2018-09-25T06:20:29.903Z,85.30
2018-09-25T06:23:03.495Z,85.50
2018-09-25T06:25:37.214Z,85.90
2018-09-25T06:28:10.780Z,86.50
2018-09-25T06:30:44.507Z,86.60
2018-09-25T06:33:18.130Z,87.00
2018-09-25T06:35:51.828Z,87.00
2018-09-25T06:38:25.463Z,86.20
2018-09-25T06:40:59.222Z,85.60
2018-09-25T06:43:32.922Z,85.60
2018-09-25T06:46:06.821Z,85.00
2018-09-25T06:48:40.523Z,85.60
2018-09-25T06:51:14.098Z,84.90
2018-09-25T06:53:47.719Z,85.10
2018-09-25T06:56:21.947Z,84.30
2018-09-25T06:58:55.511Z,84.10
2018-09-25T07:01:29.791Z,84.60
2018-09-25T07:04:03.557Z,84.00
2018-09-25T07:06:37.331Z,83.80
2018-09-25T07:09:12.510Z,83.80
2018-09-25T07:11:46.307Z,83.30
2018-09-25T07:14:20.059Z,81.50
2018-09-25T07:16:53.835Z,82.10
2018-09-25T07:19:27.470Z,81.80
2018-09-25T07:22:01.139Z,81.60
2018-09-25T07:24:34.939Z,81.40
2018-09-25T07:27:08.606Z,79.40
2018-09-25T07:29:42.207Z,80.10
2018-09-25T07:32:15.852Z,80.10
2018-09-25T07:34:49.574Z,79.10
2018-09-25T07:37:23.242Z,78.10
2018-09-25T07:39:57.851Z,79.00
2018-09-25T07:42:31.467Z,76.90
2018-09-25T07:45:05.158Z,76.00
2018-09-25T07:47:38.903Z,75.90
2018-09-25T07:50:12.592Z,75.80
2018-09-25T07:52:46.264Z,75.50
2018-09-25T07:55:20.031Z,75.40
2018-09-25T07:57:53.767Z,75.10
2018-09-25T08:00:27.476Z,75.60
2018-09-25T08:03:01.109Z,75.40
2018-09-25T08:05:34.703Z,73.50
2018-09-25T08:08:08.245Z,75.20
2018-09-25T08:10:41.739Z,74.40
2018-09-25T08:13:15.407Z,74.60
2018-09-25T08:15:49.184Z,74.60
2018-09-25T08:18:22.919Z,72.60
2018-09-25T08:20:56.423Z,72.70
2018-09-25T08:23:30.102Z,72.70
2018-09-25T08:26:03.634Z,73.30
2018-09-25T08:28:37.183Z,72.60
2018-09-25T08:31:10.875Z,72.30
2018-09-25T08:33:44.643Z,71.70
2018-09-25T08:36:18.371Z,69.60
2018-09-25T08:38:52.267Z,70.00
2018-09-25T08:41:25.796Z,70.40
2018-09-25T08:43:59.802Z,69.40
2018-09-25T08:46:33.299Z,68.30
2018-09-25T08:49:06.895Z,68.60
2018-09-25T08:51:40.496Z,70.10
2018-09-25T08:54:14.068Z,66.20
2018-09-25T08:56:47.687Z,67.40
2018-09-25T08:59:21.399Z,66.30
2018-09-25T09:01:55.112Z,68.70
2018-09-25T09:04:28.844Z,68.80
2018-09-25T09:07:02.396Z,65.80
2018-09-25T09:09:35.948Z,66.60
2018-09-25T09:12:09.395Z,65.00
2018-09-25T09:14:43.052Z,61.90
2018-09-25T09:17:16.557Z,60.80
2018-09-25T09:19:50.485Z,61.70
2018-09-25T09:22:23.886Z,61.80
2018-09-25T09:24:57.596Z,61.50
2018-09-25T09:27:31.327Z,60.30
2018-09-25T09:30:05.039Z,62.90
2018-09-25T09:32:38.590Z,61.50
2018-09-25T09:35:12.279Z,63.00
2018-09-25T09:37:45.939Z,60.50
2018-09-25T09:40:19.512Z,62.00
2018-09-25T09:42:52.979Z,61.80
2018-09-25T09:45:26.675Z,63.10
2018-09-25T09:48:00.156Z,61.70
2018-09-25T09:50:33.986Z,63.00
2018-09-25T09:53:07.600Z,64.10
2018-09-25T09:55:41.212Z,58.90
2018-09-25T09:58:15.218Z,60.40
2018-09-25T10:00:48.912Z,60.70
2018-09-25T10:03:22.671Z,60.10
2018-09-25T10:05:56.567Z,62.20
2018-09-25T10:08:30.302Z,60.50
2018-09-25T10:11:03.854Z,58.10
2018-09-25T10:13:37.420Z,58.50
2018-09-25T10:16:11.039Z,60.30
2018-09-25T10:18:44.691Z,60.70
2018-09-25T10:21:18.367Z,57.90
2018-09-25T10:23:52.431Z,58.90
2018-09-25T10:26:26.127Z,59.00
2018-09-25T10:28:59.868Z,58.10
2018-09-25T10:31:33.663Z,57.40
2018-09-25T10:34:07.248Z,59.20
2018-09-25T10:36:40.943Z,58.60
2018-09-25T10:39:14.499Z,57.20
2018-09-25T10:41:48.053Z,57.00
2018-09-25T10:44:21.463Z,56.10
2018-09-25T10:46:55.131Z,55.70
2018-09-25T10:49:28.742Z,58.90
2018-09-25T10:52:02.540Z,57.60
2018-09-25T10:54:36.047Z,58.60
2018-09-25T10:57:09.478Z,55.30
2018-09-25T10:59:43.079Z,54.60
2018-09-25T11:02:16.655Z,56.20
2018-09-25T11:04:50.176Z,55.20
2018-09-25T11:07:23.945Z,52.00
2018-09-25T11:09:57.571Z,52.00
2018-09-25T11:12:31.159Z,51.20
2018-09-25T11:15:04.707Z,49.80
2018-09-25T11:17:38.511Z,49.20
2018-09-25T11:20:12.539Z,50.50
2018-09-25T11:22:46.182Z,48.20
2018-09-25T11:25:19.748Z,47.40
2018-09-25T11:27:53.202Z,47.70
2018-09-25T11:30:26.741Z,42.50
2018-09-25T11:33:00.504Z,43.30
2018-09-25T11:35:34.027Z,43.30
2018-09-25T11:38:07.793Z,47.30
2018-09-25T11:40:41.267Z,44.30
2018-09-25T11:43:14.726Z,44.00
2018-09-25T11:45:48.351Z,44.10
2018-09-25T11:48:22.023Z,45.30
2018-09-25T11:50:55.634Z,45.70
2018-09-25T11:53:29.299Z,44.10
2018-09-25T11:56:02.849Z,41.30
2018-09-25T11:58:36.545Z,42.20
2018-09-25T12:01:09.995Z,40.00
2018-09-25T12:03:43.794Z,42.80
2018-09-25T12:06:17.826Z,42.60
2018-09-25T12:08:51.730Z,41.30
2018-09-25T12:11:25.382Z,37.00
2018-09-25T12:13:58.851Z,39.70
2018-09-25T12:16:32.244Z,39.10
2018-09-25T12:19:05.921Z,40.00
2018-09-25T12:21:39.626Z,42.20
2018-09-25T12:24:13.437Z,40.20
2018-09-25T12:26:47.055Z,38.70
2018-09-25T12:29:20.526Z,39.50
2018-09-25T12:31:54.418Z,38.60
2018-09-25T12:34:28.327Z,43.10
2018-09-25T12:37:02.251Z,41.20
2018-09-25T12:39:36.015Z,40.50
2018-09-25T12:42:09.723Z,36.40
2018-09-25T12:44:43.392Z,35.20
2018-09-25T12:47:17.143Z,37.30
2018-09-25T12:49:51.159Z,36.50
2018-09-25T12:52:24.886Z,37.90
2018-09-25T12:54:58.332Z,35.80
2018-09-25T12:57:31.903Z,37.00
2018-09-25T13:00:05.526Z,37.60
2018-09-25T13:02:39.243Z,37.90
2018-09-25T13:05:12.875Z,34.90
2018-09-25T13:07:46.404Z,36.00
2018-09-25T13:10:20.119Z,35.80
2018-09-25T13:12:53.855Z,40.00
2018-09-25T13:15:27.479Z,37.80
2018-09-25T13:18:01.167Z,36.80
2018-09-25T13:20:34.691Z,35.80
2018-09-25T13:23:08.342Z,38.60
2018-09-25T13:25:41.770Z,37.30
2018-09-25T13:28:15.407Z,35.50
2018-09-25T13:30:49.172Z,32.90
2018-09-25T13:33:22.848Z,36.80
2018-09-25T13:35:56.335Z,35.00
2018-09-25T13:38:30.023Z,36.10
2018-09-25T13:41:03.587Z,36.00
2018-09-25T13:43:37.235Z,32.80
2018-09-25T13:46:10.911Z,35.70
2018-09-25T13:48:44.583Z,34.50
2018-09-25T13:51:18.140Z,35.60
2018-09-25T13:53:51.801Z,34.10
2018-09-25T13:56:25.332Z,37.50
2018-09-25T13:58:58.851Z,34.20
2018-09-25T14:01:32.491Z,33.10
2018-09-25T14:04:06.187Z,34.70
2018-09-25T14:06:39.827Z,36.00
2018-09-25T14:09:14.591Z,33.80
2018-09-25T14:11:48.510Z,32.10
2018-09-25T14:14:21.955Z,33.80
2018-09-25T14:16:55.687Z,36.00
2018-09-25T14:19:29.259Z,34.40
2018-09-25T14:22:02.979Z,34.40
2018-09-25T14:24:36.691Z,35.60
2018-09-25T14:27:10.163Z,37.70
2018-09-25T14:29:43.750Z,36.40
2018-09-25T14:32:17.443Z,36.70
2018-09-25T14:34:51.022Z,36.20
2018-09-25T14:37:24.602Z,36.60
2018-09-25T14:39:58.301Z,37.10
2018-09-25T14:42:31.990Z,37.20
2018-09-25T14:45:05.681Z,34.30
2018-09-25T14:47:39.166Z,37.00
2018-09-25T14:50:12.912Z,38.80
2018-09-25T14:52:46.584Z,35.80
2018-09-25T14:55:20.286Z,37.60
2018-09-25T14:57:53.876Z,35.40
2018-09-25T15:00:27.398Z,37.50
2018-09-25T15:03:01.230Z,36.90
2018-09-25T15:05:34.883Z,37.80
2018-09-25T15:08:08.515Z,39.30
2018-09-25T15:10:42.257Z,36.90
2018-09-25T15:13:15.910Z,37.10
2018-09-25T15:15:49.595Z,38.80
2018-09-25T15:18:23.067Z,41.10
2018-09-25T15:20:56.568Z,37.20
2018-09-25T15:23:30.331Z,39.40
2018-09-25T15:26:04.021Z,40.20
2018-09-25T15:28:37.717Z,39.90
2018-09-25T15:31:11.521Z,41.40
2018-09-25T15:33:45.043Z,41.70
2018-09-25T15:36:18.623Z,40.30
2018-09-25T15:38:52.129Z,41.00
2018-09-25T15:41:25.668Z,40.40
2018-09-25T15:43:59.407Z,39.50
2018-09-25T15:46:33.039Z,40.40
2018-09-25T15:49:06.678Z,40.70
2018-09-25T15:51:40.200Z,42.60
2018-09-25T15:54:13.946Z,41.20
2018-09-25T15:56:47.627Z,40.70
2018-09-25T15:59:21.447Z,41.30
2018-09-25T16:01:55.087Z,42.50
2018-09-25T16:04:28.737Z,40.70
2018-09-25T16:07:02.672Z,41.50
2018-09-25T16:09:36.323Z,42.10
2018-09-25T16:12:09.930Z,42.50
2018-09-25T16:14:43.640Z,42.40
2018-09-25T16:17:17.191Z,41.50
2018-09-25T16:19:50.863Z,43.40
2018-09-25T16:22:24.495Z,41.90
2018-09-25T16:24:57.967Z,42.90
2018-09-25T16:27:31.647Z,43.20
2018-09-25T16:30:05.622Z,41.80
2018-09-25T16:32:39.163Z,43.10
2018-09-25T16:35:12.899Z,43.10
2018-09-25T16:37:46.599Z,46.50
2018-09-25T16:40:20.263Z,44.20
2018-09-25T16:42:53.874Z,46.60
2018-09-25T16:45:27.402Z,45.40
2018-09-25T16:48:01.132Z,46.10
2018-09-25T16:50:34.891Z,45.70
2018-09-25T16:53:08.419Z,46.40
2018-09-25T16:55:42.087Z,45.90
2018-09-25T16:58:15.647Z,48.00
2018-09-25T17:00:49.347Z,48.20
2018-09-25T17:03:22.936Z,48.50
2018-09-25T17:05:56.685Z,48.70
2018-09-25T17:08:30.083Z,49.60
2018-09-25T17:11:03.823Z,49.70
2018-09-25T17:13:37.391Z,50.60
2018-09-25T17:16:10.967Z,50.60
2018-09-25T17:18:44.523Z,51.80
2018-09-25T17:21:18.147Z,52.80
2018-09-25T17:23:51.716Z,54.30
2018-09-25T17:26:25.420Z,54.10
2018-09-25T17:28:59.356Z,54.50
2018-09-25T17:31:33.000Z,55.90
2018-09-25T17:34:06.571Z,57.30
2018-09-25T17:36:40.171Z,56.60
2018-09-25T17:39:14.478Z,57.40
2018-09-25T17:41:48.579Z,56.80
2018-09-25T17:44:22.239Z,57.10
2018-09-25T17:46:55.884Z,58.70
2018-09-25T17:49:29.472Z,57.70
2018-09-25T17:52:03.228Z,57.00
2018-09-25T17:54:36.678Z,57.40
2018-09-25T17:57:10.290Z,57.50
2018-09-25T17:59:44.183Z,57.20
2018-09-25T18:02:17.794Z,59.00
2018-09-25T18:04:51.371Z,59.60
2018-09-25T18:07:24.927Z,58.70
2018-09-25T18:09:58.566Z,60.00
2018-09-25T18:12:32.475Z,59.30
2018-09-25T18:15:06.268Z,59.30
2018-09-25T18:17:39.864Z,60.00
2018-09-25T18:20:13.387Z,60.10
2018-09-25T18:22:47.058Z,59.40
2018-09-25T18:25:20.723Z,60.10
2018-09-25T18:27:54.554Z,60.20
2018-09-25T18:30:28.228Z,60.30
2018-09-25T18:33:01.848Z,61.40
2018-09-25T18:35:35.755Z,61.30
2018-09-25T18:38:09.337Z,61.10
2018-09-25T18:40:42.925Z,62.00
2018-09-25T18:43:16.496Z,61.40
2018-09-25T18:45:50.173Z,62.40
2018-09-25T18:48:23.955Z,63.00
2018-09-25T18:50:57.682Z,62.60
2018-09-25T18:53:31.368Z,62.50
2018-09-25T18:56:05.031Z,63.30
2018-09-25T18:58:38.710Z,63.40
2018-09-25T19:01:12.573Z,63.00
2018-09-25T19:03:46.344Z,64.20
2018-09-25T19:06:20.004Z,63.80
2018-09-25T19:08:53.543Z,64.20
2018-09-25T19:11:27.211Z,63.70
2018-09-25T19:14:00.627Z,63.70
2018-09-25T19:16:34.589Z,64.40
2018-09-25T19:19:08.151Z,64.00
2018-09-25T19:21:41.910Z,64.40
2018-09-25T19:24:15.354Z,64.60
2018-09-25T19:26:49.064Z,63.80
2018-09-25T19:29:22.669Z,64.40
2018-09-25T19:31:56.240Z,64.00
2018-09-25T19:34:29.870Z,64.20
2018-09-25T19:37:03.591Z,64.30
2018-09-25T19:39:37.456Z,66.00
2018-09-25T19:42:11.095Z,66.30
2018-09-25T19:44:44.809Z,65.70
2018-09-25T19:47:18.227Z,66.30
2018-09-25T19:49:51.766Z,66.00
2018-09-25T19:52:25.368Z,66.30
2018-09-25T19:54:59.068Z,66.30
2018-09-25T19:57:32.995Z,66.10
2018-09-25T20:00:06.643Z,65.90
2018-09-25T20:02:40.323Z,65.90
2018-09-25T20:05:14.023Z,66.10
2018-09-25T20:07:47.579Z,66.50
2018-09-25T20:10:21.156Z,66.80
2018-09-25T20:12:54.954Z,67.00
2018-09-25T20:15:28.492Z,67.30
2018-09-25T20:18:02.000Z,66.80
2018-09-25T20:20:35.562Z,67.00
2018-09-25T20:23:09.177Z,67.00
2018-09-25T20:25:42.760Z,68.00
2018-09-25T20:28:16.468Z,68.70
2018-09-25T20:30:50.059Z,67.60
2018-09-25T20:33:23.683Z,68.10
2018-09-25T20:35:57.363Z,69.00
2018-09-25T20:38:30.975Z,68.40
2018-09-25T20:41:04.829Z,69.10
2018-09-25T20:43:38.579Z,69.30
2018-09-25T20:46:12.312Z,68.80
2018-09-25T20:48:46.094Z,68.90
2018-09-25T20:51:19.795Z,68.80
2018-09-25T20:53:53.518Z,69.20
2018-09-25T20:56:27.076Z,68.60
2018-09-25T20:59:00.752Z,69.40
2018-09-25T21:01:34.286Z,68.80
2018-09-25T21:04:08.109Z,68.70
2018-09-25T21:06:41.727Z,69.60
2018-09-25T21:09:15.344Z,69.00
2018-09-25T21:11:48.890Z,68.80
2018-09-25T21:14:22.571Z,69.60
2018-09-25T21:16:56.186Z,70.10
2018-09-25T21:19:29.895Z,70.30
2018-09-25T21:22:03.610Z,71.00
2018-09-25T21:24:37.436Z,71.00
2018-09-25T21:27:11.298Z,71.30
2018-09-25T21:29:44.996Z,70.50
2018-09-25T21:32:18.700Z,71.20
2018-09-25T21:34:52.092Z,70.70
2018-09-25T21:37:25.567Z,71.40
2018-09-25T21:39:59.627Z,72.10
2018-09-25T21:42:33.291Z,72.20
2018-09-25T21:45:06.973Z,71.60
2018-09-25T21:47:40.583Z,72.20
2018-09-25T21:50:14.329Z,72.70
2018-09-25T21:52:47.836Z,72.90
2018-09-25T21:55:21.476Z,73.10
2018-09-25T21:57:55.499Z,72.20
2018-09-25T22:00:28.908Z,72.70
2018-09-25T22:03:02.494Z,73.40
2018-09-25T22:05:36.039Z,73.30
2018-09-25T22:08:09.703Z,74.10
2018-09-25T22:10:43.447Z,73.00
2018-09-25T22:13:16.873Z,72.60
2018-09-25T22:15:50.536Z,72.20
2018-09-25T22:18:24.165Z,71.20
2018-09-25T22:20:57.814Z,69.80
2018-09-25T22:23:31.414Z,69.80
2018-09-25T22:26:04.859Z,69.80
2018-09-25T22:28:38.711Z,69.80
2018-09-25T22:31:12.447Z,69.80
2018-09-25T22:33:46.452Z,70.50
2018-09-25T22:36:20.193Z,69.90
2018-09-25T22:38:53.885Z,69.80
2018-09-25T22:41:27.586Z,68.80
2018-09-25T22:44:01.379Z,68.70
2018-09-25T22:46:35.172Z,68.30
2018-09-25T22:49:08.758Z,68.00
2018-09-25T22:51:42.475Z,67.90
2018-09-25T22:54:16.123Z,68.50
2018-09-25T22:56:49.558Z,68.40
2018-09-25T22:59:23.203Z,69.00
2018-09-25T23:01:56.821Z,68.80
2018-09-25T23:04:30.402Z,69.40
2018-09-25T23:07:03.874Z,69.60
2018-09-25T23:09:37.570Z,70.00
2018-09-25T23:12:11.783Z,69.70
2018-09-25T23:14:45.963Z,69.50
2018-09-25T23:17:19.587Z,70.30
2018-09-25T23:19:53.503Z,70.60
2018-09-25T23:22:27.108Z,71.00
2018-09-25T23:25:00.860Z,71.30
2018-09-25T23:27:34.475Z,71.60
2018-09-25T23:30:08.327Z,71.30
2018-09-25T23:32:42.055Z,71.50
2018-09-25T23:35:16.095Z,71.20
2018-09-25T23:37:49.814Z,70.90
2018-09-25T23:41:26.182Z,70.80
2018-09-25T23:44:16.859Z,70.60
2018-09-25T23:46:49.520Z,70.70
2018-09-25T23:49:21.866Z,70.80
2018-09-25T23:51:58.339Z,71.30
2018-09-25T23:54:31.192Z,72.10
2018-09-25T23:57:04.768Z,71.50
2018-09-25T23:59:36.411Z,71.90
